createdAt,value
2023-11-30T05:15:14.936Z,135.80
2023-11-30T05:16:14.899Z,132.70
2023-11-30T05:17:14.924Z,89.10
2023-11-30T05:18:14.953Z,92.30
2023-11-30T05:19:14.865Z,91.60
2023-11-30T05:20:14.873Z,108.00
2023-11-30T05:21:14.871Z,121.70
2023-11-30T05:22:14.816Z,99.00
2023-11-30T05:23:14.797Z,89.30
2023-11-30T05:24:14.825Z,86.60
2023-11-30T05:25:14.804Z,107.20
2023-11-30T05:26:14.792Z,80.50
2023-11-30T05:27:14.782Z,90.40
2023-11-30T05:28:14.755Z,144.70
2023-11-30T05:29:14.732Z,88.90
2023-11-30T05:30:14.821Z,111.40
2023-11-30T05:31:14.722Z,102.50
2023-11-30T05:32:14.689Z,99.40
2023-11-30T05:33:14.742Z,78.40
2023-11-30T05:34:14.659Z,102.30
2023-11-30T05:35:14.679Z,96.20
2023-11-30T05:36:14.655Z,113.80
2023-11-30T05:37:14.628Z,101.40
2023-11-30T05:38:14.612Z,78.90
2023-11-30T05:39:14.634Z,102.30
2023-11-30T05:40:14.602Z,99.70
2023-11-30T05:41:14.574Z,101.80
2023-11-30T05:42:14.589Z,110.60
2023-11-30T05:43:14.563Z,97.20
2023-11-30T05:44:14.550Z,114.90
2023-11-30T05:45:14.577Z,89.20
2023-11-30T05:46:14.542Z,97.50
2023-11-30T05:47:14.493Z,107.50
2023-11-30T05:48:14.570Z,94.50
2023-11-30T05:49:14.559Z,105.30
2023-11-30T05:50:14.458Z,91.70
2023-11-30T05:51:14.527Z,79.50
2023-11-30T05:52:14.434Z,63.20
2023-11-30T05:53:14.427Z,101.10
2023-11-30T05:54:14.503Z,94.20
2023-11-30T05:55:14.393Z,68.10
2023-11-30T05:56:14.380Z,69.30
2023-11-30T05:57:14.385Z,102.50
2023-11-30T05:58:14.360Z,93.40
2023-11-30T05:59:14.340Z,94.10
2023-11-30T06:00:14.391Z,97.80
2023-11-30T06:01:14.313Z,80.50
2023-11-30T06:02:14.293Z,88.30
2023-11-30T06:03:14.374Z,79.50
2023-11-30T06:04:14.445Z,83.00
2023-11-30T06:05:14.352Z,71.00
2023-11-30T06:06:14.283Z,78.60
2023-11-30T06:07:14.245Z,77.50
2023-11-30T06:08:14.240Z,73.80
2023-11-30T06:09:14.236Z,82.80
2023-11-30T06:10:14.191Z,90.50
2023-11-30T06:11:14.180Z,71.90
2023-11-30T06:12:14.229Z,73.80
2023-11-30T06:13:14.180Z,95.00
2023-11-30T06:14:14.139Z,108.80
2023-11-30T06:15:14.181Z,56.80
2023-11-30T06:16:14.145Z,68.20
2023-11-30T06:17:14.123Z,63.00
2023-11-30T06:18:14.123Z,49.90
2023-11-30T06:19:14.090Z,53.20
2023-11-30T06:20:14.065Z,40.80
2023-11-30T06:21:14.109Z,51.60
2023-11-30T06:22:14.079Z,53.40
2023-11-30T06:23:14.039Z,44.30
2023-11-30T06:24:14.058Z,36.80
2023-11-30T06:25:13.998Z,36.20
2023-11-30T06:26:14.015Z,39.30
2023-11-30T06:27:13.995Z,33.50
2023-11-30T06:28:13.964Z,41.60
2023-11-30T06:29:13.946Z,40.90
2023-11-30T06:30:13.982Z,36.90
2023-11-30T06:31:13.967Z,36.20
2023-11-30T06:32:13.913Z,35.50
2023-11-30T06:33:13.984Z,40.50
2023-11-30T06:34:13.923Z,41.00
2023-11-30T06:35:13.876Z,40.60
2023-11-30T06:36:13.900Z,34.40
2023-11-30T06:37:13.848Z,40.30
2023-11-30T06:38:13.853Z,46.30
2023-11-30T06:39:13.847Z,61.20
2023-11-30T06:40:13.854Z,69.00
2023-11-30T06:41:13.862Z,47.90
2023-11-30T06:42:13.809Z,48.40
2023-11-30T06:43:13.767Z,56.20
2023-11-30T06:44:13.768Z,55.00
2023-11-30T06:45:13.801Z,54.30
2023-11-30T06:46:13.733Z,52.70
2023-11-30T06:47:13.718Z,58.60
2023-11-30T06:49:10.771Z,82.00
2023-11-30T06:50:10.793Z,76.00
2023-11-30T06:51:10.820Z,99.00
2023-11-30T06:52:10.780Z,107.90
2023-11-30T06:53:10.726Z,96.10
2023-11-30T06:54:10.766Z,117.40
2023-11-30T06:55:10.706Z,95.40
2023-11-30T06:56:10.662Z,96.70
2023-11-30T06:57:10.675Z,117.60
2023-11-30T06:58:10.637Z,106.00
2023-11-30T06:59:10.637Z,132.00
2023-11-30T07:00:10.639Z,120.40
2023-11-30T07:01:10.606Z,155.00
2023-11-30T07:02:10.636Z,110.60
2023-11-30T07:03:10.765Z,104.90
2023-11-30T07:04:10.714Z,125.00
2023-11-30T07:05:10.582Z,158.00
2023-11-30T07:06:10.723Z,112.20
2023-11-30T07:07:17.266Z,145.40
2023-11-30T07:08:11.525Z,125.40
2023-11-30T07:09:10.544Z,164.00
2023-11-30T07:10:10.495Z,156.00
2023-11-30T07:11:10.485Z,133.00
2023-11-30T07:12:10.948Z,188.80
2023-11-30T07:13:10.493Z,156.00
2023-11-30T07:14:10.428Z,190.00
2023-11-30T07:15:10.456Z,149.10
2023-11-30T07:16:10.426Z,155.80
2023-11-30T07:17:10.396Z,157.50
2023-11-30T07:18:10.662Z,139.10
2023-11-30T07:19:10.380Z,200.60
2023-11-30T07:20:10.351Z,146.60
2023-11-30T07:21:10.360Z,141.80
2023-11-30T07:22:10.346Z,146.30
2023-11-30T07:23:10.333Z,179.60
2023-11-30T07:24:12.365Z,245.40
2023-11-30T07:25:10.295Z,224.30
2023-11-30T07:26:10.272Z,226.90
2023-11-30T07:27:10.293Z,216.30
2023-11-30T07:28:10.250Z,178.40
2023-11-30T07:29:10.239Z,149.30
2023-11-30T07:30:10.346Z,273.60
2023-11-30T07:31:10.254Z,200.50
2023-11-30T07:32:10.211Z,194.00
2023-11-30T07:33:10.277Z,210.20
2023-11-30T07:34:10.167Z,214.70
2023-11-30T07:35:10.171Z,205.80
2023-11-30T07:36:12.390Z,242.50
2023-11-30T07:37:10.150Z,267.00
2023-11-30T07:38:10.125Z,293.40
2023-11-30T07:39:10.212Z,286.60
2023-11-30T07:40:10.108Z,182.00
2023-11-30T07:41:10.113Z,292.00
2023-11-30T07:42:10.118Z,343.90
2023-11-30T07:43:10.094Z,440.10
2023-11-30T07:44:10.058Z,376.80
2023-11-30T07:45:10.062Z,343.40
2023-11-30T07:46:10.051Z,257.10
2023-11-30T07:47:10.019Z,224.30
2023-11-30T07:48:10.104Z,345.40
2023-11-30T07:49:09.986Z,258.90
2023-11-30T07:50:09.973Z,245.10
2023-11-30T07:51:09.993Z,234.10
2023-11-30T07:52:09.943Z,364.60
2023-11-30T07:53:09.941Z,258.90
2023-11-30T07:54:09.944Z,380.60
2023-11-30T07:55:09.918Z,375.60
2023-11-30T07:56:09.887Z,355.70
2023-11-30T07:57:09.890Z,440.80
2023-11-30T07:58:09.880Z,380.60
2023-11-30T07:59:09.864Z,260.30
2023-11-30T08:00:09.926Z,204.60
2023-11-30T08:01:09.840Z,313.30
2023-11-30T08:02:09.809Z,283.20
2023-11-30T08:03:09.857Z,346.60
2023-11-30T08:04:09.913Z,220.50
2023-11-30T08:05:09.787Z,310.70
2023-11-30T08:06:09.816Z,356.60
2023-11-30T08:07:09.762Z,428.90
2023-11-30T08:08:09.740Z,325.70
2023-11-30T08:09:09.779Z,290.40
2023-11-30T08:10:09.713Z,390.20
2023-11-30T08:11:09.724Z,335.20
2023-11-30T08:12:09.728Z,264.40
2023-11-30T08:13:09.675Z,258.60
2023-11-30T08:14:09.668Z,320.60
2023-11-30T08:15:09.663Z,279.60
2023-11-30T08:16:09.661Z,273.10
2023-11-30T08:17:09.627Z,183.60
2023-11-30T08:18:09.687Z,154.70
2023-11-30T08:19:09.685Z,238.20
2023-11-30T08:20:09.593Z,205.10
2023-11-30T08:21:09.614Z,230.60
2023-11-30T08:22:10.010Z,174.90
2023-11-30T08:23:09.562Z,190.30
2023-11-30T08:24:09.615Z,214.80
2023-11-30T08:25:09.531Z,242.20
2023-11-30T08:26:09.510Z,232.70
2023-11-30T08:27:09.542Z,160.70
2023-11-30T08:28:09.493Z,197.60
2023-11-30T08:29:09.487Z,303.90
2023-11-30T08:30:09.500Z,197.60
2023-11-30T08:31:09.565Z,200.80
2023-11-30T08:32:09.495Z,267.70
2023-11-30T08:33:09.558Z,255.60
2023-11-30T08:34:09.402Z,187.80
2023-11-30T08:35:09.402Z,145.80
2023-11-30T08:36:09.426Z,136.70
2023-11-30T08:37:09.393Z,157.20
2023-11-30T08:38:09.349Z,135.20
2023-11-30T08:39:09.383Z,166.10
2023-11-30T08:40:09.337Z,153.50
2023-11-30T08:41:09.319Z,146.40
2023-11-30T08:42:09.349Z,141.40
2023-11-30T08:43:09.308Z,128.70
2023-11-30T08:44:09.345Z,121.40
2023-11-30T08:45:09.317Z,139.20
2023-11-30T08:46:09.415Z,113.90
2023-11-30T08:47:09.270Z,102.70
2023-11-30T08:48:09.366Z,109.50
2023-11-30T08:49:09.209Z,112.30
2023-11-30T08:50:09.222Z,101.30
2023-11-30T08:51:09.240Z,95.10
2023-11-30T08:52:09.185Z,96.70
2023-11-30T08:53:09.165Z,79.40
2023-11-30T08:54:09.161Z,83.20
2023-11-30T08:55:09.137Z,81.10
2023-11-30T08:56:09.133Z,79.50
2023-11-30T08:57:09.197Z,77.10
2023-11-30T08:58:09.108Z,70.00
2023-11-30T08:59:09.079Z,66.60
2023-11-30T09:00:09.180Z,70.40
2023-11-30T09:01:09.108Z,71.40
2023-11-30T09:02:09.142Z,63.40
2023-11-30T09:03:09.059Z,76.80
2023-11-30T09:04:09.076Z,75.70
2023-11-30T09:05:09.049Z,66.40
2023-11-30T09:06:09.027Z,71.30
2023-11-30T09:07:08.987Z,64.10
2023-11-30T09:08:08.993Z,68.10
2023-11-30T09:09:08.968Z,60.80
2023-11-30T09:10:08.952Z,65.20
2023-11-30T09:11:08.926Z,70.10
2023-11-30T09:12:09.002Z,64.80
2023-11-30T09:13:08.937Z,71.90
2023-11-30T09:14:08.906Z,73.50
2023-11-30T09:15:08.926Z,67.10
2023-11-30T09:16:08.906Z,70.20
2023-11-30T09:17:08.851Z,63.40
2023-11-30T09:18:09.020Z,69.80
2023-11-30T09:19:08.829Z,59.20
2023-11-30T09:20:08.824Z,65.80
2023-11-30T09:21:08.812Z,63.40
2023-11-30T09:22:08.818Z,64.40
2023-11-30T09:23:08.788Z,62.90
2023-11-30T09:24:08.813Z,57.40
2023-11-30T09:25:08.787Z,57.60
2023-11-30T09:26:08.749Z,67.00
2023-11-30T09:27:08.769Z,64.50
2023-11-30T09:28:08.742Z,70.10
2023-11-30T09:29:08.707Z,72.20
2023-11-30T09:30:08.818Z,70.10
2023-11-30T09:31:08.674Z,74.70
2023-11-30T09:32:08.667Z,86.40
2023-11-30T09:33:08.711Z,74.50
2023-11-30T09:34:08.630Z,58.60
2023-11-30T09:35:08.614Z,59.30
2023-11-30T09:36:08.648Z,193.70
2023-11-30T09:37:08.600Z,104.90
2023-11-30T09:38:08.604Z,71.80
2023-11-30T09:39:08.627Z,128.90
2023-11-30T09:40:08.563Z,157.00
2023-11-30T09:41:08.536Z,107.80
2023-11-30T09:42:08.576Z,73.80
2023-11-30T09:43:08.520Z,89.00
2023-11-30T09:44:08.508Z,82.40
2023-11-30T09:45:08.569Z,114.90
2023-11-30T09:46:08.513Z,66.70
2023-11-30T09:47:08.477Z,58.70
2023-11-30T09:48:08.618Z,74.30
2023-11-30T09:49:10.183Z,66.70
2023-11-30T09:50:08.437Z,81.90
2023-11-30T09:51:08.418Z,57.10
2023-11-30T09:52:08.425Z,59.60
2023-11-30T09:53:08.385Z,67.80
2023-11-30T09:54:08.408Z,67.60
2023-11-30T09:55:08.362Z,60.30
2023-11-30T09:56:08.349Z,75.20
2023-11-30T09:57:08.375Z,85.00
2023-11-30T09:58:08.314Z,56.40
2023-11-30T09:59:08.337Z,49.20
2023-11-30T10:00:08.316Z,62.00
2023-11-30T10:01:08.344Z,69.50
2023-11-30T10:02:09.154Z,93.60
2023-11-30T10:03:08.315Z,114.70
2023-11-30T10:04:08.273Z,77.70
2023-11-30T10:05:08.256Z,113.60
2023-11-30T10:06:08.256Z,88.00
2023-11-30T10:07:08.194Z,56.60
2023-11-30T10:08:08.187Z,56.90
2023-11-30T10:09:08.185Z,56.90
2023-11-30T10:10:08.166Z,69.20
2023-11-30T10:11:08.160Z,126.50
2023-11-30T10:12:08.190Z,83.00
2023-11-30T10:13:08.129Z,115.40
2023-11-30T10:14:08.131Z,147.30
2023-11-30T10:15:08.147Z,81.20
2023-11-30T10:16:08.251Z,73.10
2023-11-30T10:17:08.152Z,62.90
2023-11-30T10:18:08.233Z,59.90
2023-11-30T10:19:08.741Z,61.10
2023-11-30T10:20:08.065Z,55.20
2023-11-30T10:21:08.042Z,58.90
2023-11-30T10:22:08.018Z,51.60
2023-11-30T10:23:07.988Z,55.20
2023-11-30T10:24:08.017Z,52.30
2023-11-30T10:25:07.976Z,54.60
2023-11-30T10:26:07.945Z,49.90
2023-11-30T10:27:07.955Z,48.40
2023-11-30T10:28:07.923Z,48.90
2023-11-30T10:29:08.155Z,50.40
2023-11-30T10:30:08.066Z,47.10
2023-11-30T10:31:07.894Z,52.50
2023-11-30T10:32:07.867Z,51.30
2023-11-30T10:33:07.956Z,51.10
2023-11-30T10:34:08.007Z,57.90
2023-11-30T10:35:07.931Z,53.10
2023-11-30T10:36:07.839Z,56.40
2023-11-30T10:37:07.842Z,59.80
2023-11-30T10:38:07.810Z,56.90
2023-11-30T10:39:07.905Z,59.60
2023-11-30T10:40:07.760Z,51.50
2023-11-30T10:41:07.751Z,48.30
2023-11-30T10:42:07.761Z,53.60
2023-11-30T10:43:07.742Z,50.50
2023-11-30T10:44:07.719Z,49.00
2023-11-30T10:45:07.935Z,48.90
2023-11-30T10:46:07.682Z,53.40
2023-11-30T10:47:07.704Z,51.00
2023-11-30T10:48:07.789Z,53.40
2023-11-30T10:49:07.646Z,50.30
2023-11-30T10:50:07.674Z,48.80
2023-11-30T10:51:07.671Z,51.00
2023-11-30T10:52:07.608Z,51.00
2023-11-30T10:53:07.607Z,50.30
2023-11-30T10:54:07.609Z,51.70
2023-11-30T10:55:07.596Z,51.20
2023-11-30T10:56:07.578Z,51.20
2023-11-30T10:57:07.603Z,51.70
2023-11-30T10:58:07.575Z,48.50
2023-11-30T10:59:07.519Z,51.50
2023-11-30T11:00:07.520Z,48.90
2023-11-30T11:01:07.582Z,45.40
2023-11-30T11:02:07.535Z,49.80
2023-11-30T11:03:07.577Z,49.00
2023-11-30T11:04:07.632Z,49.90
2023-11-30T11:05:07.456Z,48.40
2023-11-30T11:06:07.429Z,47.30
2023-11-30T11:07:07.446Z,45.90
2023-11-30T11:08:07.403Z,43.90
2023-11-30T11:09:07.471Z,48.60
2023-11-30T11:10:07.429Z,54.20
2023-11-30T11:11:07.384Z,56.00
2023-11-30T11:12:07.434Z,51.90
2023-11-30T11:13:07.387Z,55.20
2023-11-30T11:14:07.330Z,57.00
2023-11-30T11:15:07.346Z,53.60
2023-11-30T11:16:07.380Z,55.90
2023-11-30T11:17:07.318Z,55.20
2023-11-30T11:18:07.390Z,49.50
2023-11-30T11:19:07.272Z,54.00
2023-11-30T11:20:07.261Z,51.30
2023-11-30T11:21:07.278Z,53.20
2023-11-30T11:22:07.221Z,58.20
2023-11-30T11:23:07.239Z,67.80
2023-11-30T11:24:07.256Z,59.70
2023-11-30T11:25:07.203Z,62.50
2023-11-30T11:26:07.198Z,58.90
2023-11-30T11:27:07.189Z,63.30
2023-11-30T11:28:07.171Z,69.90
2023-11-30T11:29:07.149Z,69.00
2023-11-30T11:30:07.180Z,65.50
2023-11-30T11:31:07.151Z,61.90
2023-11-30T11:32:07.097Z,64.30
2023-11-30T11:33:07.214Z,65.10
2023-11-30T11:34:07.093Z,66.90
2023-11-30T11:35:07.085Z,64.50
2023-11-30T11:36:07.129Z,72.30
2023-11-30T11:37:07.035Z,65.50
2023-11-30T11:38:07.038Z,63.80
2023-11-30T11:39:07.053Z,64.00
2023-11-30T11:40:07.027Z,59.40
2023-11-30T11:41:06.990Z,62.90
2023-11-30T11:42:06.978Z,62.50
2023-11-30T11:43:06.984Z,57.80
2023-11-30T11:44:06.952Z,61.80
2023-11-30T11:45:07.054Z,54.80
2023-11-30T11:46:07.099Z,52.70
2023-11-30T11:47:06.910Z,49.50
2023-11-30T11:48:07.048Z,56.00
2023-11-30T11:49:06.909Z,51.40
2023-11-30T11:50:06.874Z,50.70
2023-11-30T11:51:06.962Z,54.00
2023-11-30T11:52:06.858Z,51.20
2023-11-30T11:53:06.860Z,54.50
2023-11-30T11:54:06.886Z,56.40
2023-11-30T11:55:06.818Z,51.50
2023-11-30T11:56:06.811Z,51.40
2023-11-30T11:57:06.783Z,50.10
2023-11-30T11:58:06.773Z,43.20
2023-11-30T11:59:06.767Z,44.40
2023-11-30T12:00:06.787Z,41.70
2023-11-30T12:01:06.788Z,38.50
2023-11-30T12:02:06.773Z,40.80
2023-11-30T12:03:06.765Z,42.50
2023-11-30T12:04:06.743Z,42.90
2023-11-30T12:05:06.697Z,41.00
2023-11-30T12:06:06.663Z,40.20
2023-11-30T12:07:06.684Z,43.20
2023-11-30T12:08:06.649Z,44.00
2023-11-30T12:09:06.622Z,45.20
2023-11-30T12:10:06.601Z,41.10
2023-11-30T12:11:06.598Z,49.70
2023-11-30T12:12:06.588Z,43.70
2023-11-30T12:13:06.563Z,43.70
2023-11-30T12:14:06.566Z,45.50
2023-11-30T12:15:06.541Z,46.00
2023-11-30T12:16:06.595Z,47.20
2023-11-30T12:17:06.528Z,46.20
2023-11-30T12:18:06.580Z,48.30
2023-11-30T12:19:06.493Z,44.90
2023-11-30T12:20:06.479Z,49.70
2023-11-30T12:21:06.484Z,54.10
2023-11-30T12:22:06.458Z,53.30
2023-11-30T12:23:06.435Z,57.80
2023-11-30T12:24:06.410Z,54.10
2023-11-30T12:25:06.436Z,56.60
2023-11-30T12:26:06.405Z,58.10
2023-11-30T12:27:06.400Z,59.10
2023-11-30T12:28:06.369Z,58.70
2023-11-30T12:29:06.353Z,60.60
2023-11-30T12:30:06.348Z,57.90
2023-11-30T12:31:06.343Z,58.20
2023-11-30T12:32:06.444Z,65.20
2023-11-30T12:33:06.539Z,55.80
2023-11-30T12:34:06.318Z,54.90
2023-11-30T12:35:06.328Z,63.60
2023-11-30T12:36:06.306Z,56.00
2023-11-30T12:37:06.247Z,58.60
2023-11-30T12:38:06.228Z,64.80
2023-11-30T12:39:06.259Z,60.00
2023-11-30T12:40:06.216Z,61.60
2023-11-30T12:41:06.195Z,61.60
2023-11-30T12:42:06.731Z,61.20
2023-11-30T12:43:06.172Z,96.20
2023-11-30T12:44:06.528Z,62.80
2023-11-30T12:45:06.218Z,59.90
2023-11-30T12:46:06.163Z,61.80
2023-11-30T12:47:06.119Z,56.00
2023-11-30T12:48:06.133Z,56.60
2023-11-30T12:49:06.122Z,63.00
2023-11-30T12:50:06.184Z,57.20
2023-11-30T12:51:06.070Z,60.70
2023-11-30T12:52:06.061Z,81.10
2023-11-30T12:53:06.036Z,65.50
2023-11-30T12:54:06.037Z,64.20
2023-11-30T12:55:06.492Z,52.60
2023-11-30T12:56:05.991Z,55.20
2023-11-30T12:57:05.989Z,52.30
2023-11-30T12:58:05.977Z,55.30
2023-11-30T12:59:05.987Z,50.00
2023-11-30T13:00:05.955Z,53.40
2023-11-30T13:01:05.939Z,49.80
2023-11-30T13:02:06.007Z,54.80
2023-11-30T13:03:05.922Z,56.20
2023-11-30T13:04:06.014Z,61.80
2023-11-30T13:05:05.891Z,80.80
2023-11-30T13:06:05.867Z,64.60
2023-11-30T13:07:05.865Z,55.60
2023-11-30T13:08:05.852Z,57.60
2023-11-30T13:09:05.839Z,54.10
2023-11-30T13:10:05.841Z,54.80
2023-11-30T13:11:05.802Z,56.00
2023-11-30T13:12:05.811Z,56.30
2023-11-30T13:13:05.802Z,53.60
2023-11-30T13:14:05.760Z,51.80
2023-11-30T13:15:05.750Z,50.20
2023-11-30T13:16:05.740Z,51.10
2023-11-30T13:17:05.750Z,58.90
2023-11-30T13:18:05.770Z,52.10
2023-11-30T13:19:05.912Z,51.20
2023-11-30T13:20:05.699Z,52.80
2023-11-30T13:21:05.675Z,54.10
2023-11-30T13:22:05.679Z,52.80
2023-11-30T13:23:05.666Z,53.00
2023-11-30T13:24:05.629Z,51.60
2023-11-30T13:25:05.632Z,51.20
2023-11-30T13:26:05.599Z,48.10
2023-11-30T13:27:05.628Z,47.00
2023-11-30T13:28:05.597Z,47.80
2023-11-30T13:29:05.576Z,46.60
2023-11-30T13:30:05.554Z,54.90
2023-11-30T13:31:05.633Z,45.90
2023-11-30T13:32:05.541Z,50.80
2023-11-30T13:33:05.677Z,47.20
2023-11-30T13:34:05.516Z,46.50
2023-11-30T13:35:05.489Z,46.40
2023-11-30T13:36:05.482Z,43.60
2023-11-30T13:37:05.476Z,43.60
2023-11-30T13:38:05.445Z,45.20
2023-11-30T13:39:05.443Z,46.80
2023-11-30T13:40:05.424Z,43.30
2023-11-30T13:41:05.432Z,41.40
2023-11-30T13:42:05.396Z,43.30
2023-11-30T13:43:05.398Z,45.60
2023-11-30T13:44:05.407Z,44.90
2023-11-30T13:45:05.364Z,46.70
2023-11-30T13:46:05.362Z,38.00
2023-11-30T13:47:05.333Z,44.20
2023-11-30T13:48:05.329Z,44.60
2023-11-30T13:49:05.302Z,45.80
2023-11-30T13:50:12.468Z,49.00
2023-11-30T13:51:06.299Z,44.00
2023-11-30T13:52:05.259Z,51.30
2023-11-30T13:53:05.275Z,46.20
2023-11-30T13:54:05.236Z,48.80
2023-11-30T13:55:05.241Z,44.60
2023-11-30T13:56:05.225Z,47.80
2023-11-30T13:57:05.205Z,45.10
2023-11-30T13:58:05.205Z,47.30
2023-11-30T13:59:05.174Z,49.30
2023-11-30T14:00:05.166Z,49.00
2023-11-30T14:01:05.267Z,52.80
2023-11-30T14:02:05.166Z,50.60
2023-11-30T14:03:05.152Z,46.50
2023-11-30T14:04:05.243Z,48.40
2023-11-30T14:05:05.100Z,51.70
2023-11-30T14:06:05.185Z,49.30
2023-11-30T14:07:05.084Z,51.40
2023-11-30T14:08:05.055Z,50.10
2023-11-30T14:09:05.249Z,53.20
2023-11-30T14:10:05.117Z,52.20
2023-11-30T14:11:05.012Z,46.70
2023-11-30T14:12:04.999Z,50.40
2023-11-30T14:13:05.003Z,54.00
2023-11-30T14:14:04.993Z,54.10
2023-11-30T14:15:05.020Z,57.60
2023-11-30T14:16:04.988Z,52.80
2023-11-30T14:17:05.031Z,51.40
2023-11-30T14:18:04.960Z,54.60
2023-11-30T14:19:04.945Z,55.20
2023-11-30T14:20:04.897Z,54.00
2023-11-30T14:21:04.921Z,50.60
2023-11-30T14:22:04.888Z,53.30
2023-11-30T14:23:04.922Z,55.50
2023-11-30T14:24:04.841Z,50.70
2023-11-30T14:25:04.835Z,57.10
2023-11-30T14:26:04.836Z,53.90
2023-11-30T14:27:04.861Z,55.40
2023-11-30T14:28:10.929Z,53.60
2023-11-30T14:29:05.782Z,55.30
2023-11-30T14:30:04.845Z,51.60
2023-11-30T14:31:04.961Z,56.70
2023-11-30T14:32:04.856Z,54.30
2023-11-30T14:33:04.794Z,57.60
2023-11-30T14:34:05.011Z,55.40
2023-11-30T14:35:04.703Z,53.10
2023-11-30T14:36:04.683Z,55.20
2023-11-30T14:37:04.702Z,52.90
2023-11-30T14:38:04.655Z,55.40
2023-11-30T14:39:04.660Z,56.50
2023-11-30T14:40:04.631Z,51.50
2023-11-30T14:41:04.630Z,57.80
2023-11-30T14:42:04.624Z,55.70
2023-11-30T14:43:04.608Z,51.50
2023-11-30T14:44:04.604Z,54.20
2023-11-30T14:45:04.580Z,59.70
2023-11-30T14:46:04.658Z,53.50
2023-11-30T14:47:04.673Z,58.00
2023-11-30T14:48:04.571Z,55.90
2023-11-30T14:49:04.579Z,59.70
2023-11-30T14:50:04.505Z,53.90
2023-11-30T14:51:04.514Z,56.20
2023-11-30T14:52:04.475Z,49.70
2023-11-30T14:53:04.471Z,57.20
2023-11-30T14:54:04.447Z,63.80
2023-11-30T14:55:04.441Z,60.40
2023-11-30T14:56:04.444Z,54.60
2023-11-30T14:57:06.135Z,52.80
2023-11-30T14:58:04.398Z,53.80
2023-11-30T14:59:04.388Z,53.80
2023-11-30T15:00:04.383Z,55.20
2023-11-30T15:01:04.469Z,55.20
2023-11-30T15:02:04.437Z,62.50
2023-11-30T15:03:04.352Z,56.10
2023-11-30T15:04:04.377Z,58.10
2023-11-30T15:05:04.333Z,59.80
2023-11-30T15:06:04.301Z,56.50
2023-11-30T15:07:04.312Z,64.20
2023-11-30T15:08:04.315Z,60.80
2023-11-30T15:09:04.269Z,65.30
2023-11-30T15:10:04.270Z,64.10
2023-11-30T15:11:04.275Z,61.50
2023-11-30T15:12:04.274Z,65.80
2023-11-30T15:13:04.220Z,73.00
2023-11-30T15:14:04.482Z,61.50
2023-11-30T15:15:04.226Z,67.10
2023-11-30T15:16:04.260Z,73.90
2023-11-30T15:17:04.164Z,65.90
2023-11-30T15:18:04.182Z,70.10
2023-11-30T15:19:04.194Z,65.60
2023-11-30T15:20:04.125Z,76.50
2023-11-30T15:21:04.109Z,64.60
2023-11-30T15:22:04.091Z,67.20
2023-11-30T15:23:04.077Z,74.70
2023-11-30T15:24:04.097Z,66.90
2023-11-30T15:25:04.078Z,73.10
2023-11-30T15:26:04.039Z,74.30
2023-11-30T15:27:04.036Z,73.80
2023-11-30T15:28:04.020Z,74.20
2023-11-30T15:29:04.019Z,69.40
2023-11-30T15:30:03.983Z,72.60
2023-11-30T15:31:04.003Z,71.60
2023-11-30T15:32:03.955Z,75.20
2023-11-30T15:33:03.981Z,70.70
2023-11-30T15:34:04.089Z,74.90
2023-11-30T15:35:03.990Z,79.60
2023-11-30T15:36:03.906Z,86.60
2023-11-30T15:37:03.897Z,82.80
2023-11-30T15:38:03.894Z,77.30
2023-11-30T15:39:03.872Z,77.70
2023-11-30T15:40:03.860Z,83.00
2023-11-30T15:41:03.840Z,95.40
2023-11-30T15:42:03.839Z,83.40
2023-11-30T15:43:03.889Z,94.10
2023-11-30T15:44:03.801Z,81.40
2023-11-30T15:45:03.811Z,83.30
2023-11-30T15:46:03.870Z,79.30
2023-11-30T15:47:03.935Z,85.60
2023-11-30T15:48:03.822Z,76.30
2023-11-30T15:49:03.759Z,81.40
2023-11-30T15:50:03.722Z,84.30
2023-11-30T15:51:03.713Z,88.00
2023-11-30T15:52:03.716Z,88.20
2023-11-30T15:53:03.693Z,86.30
2023-11-30T15:54:03.668Z,84.20
2023-11-30T15:55:10.722Z,84.10
2023-11-30T15:56:03.664Z,96.30
2023-11-30T15:57:03.709Z,87.50
2023-11-30T15:58:03.624Z,82.10
2023-11-30T15:59:03.599Z,80.70
2023-11-30T16:00:03.671Z,84.90
2023-11-30T16:01:03.616Z,80.40
2023-11-30T16:02:03.637Z,83.70
2023-11-30T16:03:03.561Z,86.00
2023-11-30T16:04:03.655Z,83.10
2023-11-30T16:05:03.529Z,86.30
2023-11-30T16:06:03.527Z,89.00
2023-11-30T16:07:03.526Z,82.00
2023-11-30T16:08:03.496Z,91.10
2023-11-30T16:09:03.470Z,85.80
2023-11-30T16:10:03.472Z,87.40
2023-11-30T16:11:03.452Z,81.00
2023-11-30T16:12:03.441Z,88.20
2023-11-30T16:13:03.420Z,86.50
2023-11-30T16:14:03.408Z,88.70
2023-11-30T16:15:03.436Z,87.20
2023-11-30T16:16:03.418Z,88.70
2023-11-30T16:17:03.360Z,83.00
2023-11-30T16:18:03.415Z,85.20
2023-11-30T16:19:03.345Z,85.70
2023-11-30T16:20:03.355Z,88.60
2023-11-30T16:21:03.310Z,82.20
2023-11-30T16:22:03.370Z,89.90
2023-11-30T16:23:03.287Z,93.50
2023-11-30T16:24:03.408Z,96.70
2023-11-30T16:25:03.480Z,90.60
2023-11-30T16:26:03.253Z,91.10
2023-11-30T16:27:03.246Z,99.30
2023-11-30T16:28:03.296Z,91.20
2023-11-30T16:29:03.225Z,94.30
2023-11-30T16:30:03.199Z,96.10
2023-11-30T16:31:03.229Z,85.40
2023-11-30T16:32:03.218Z,87.50
2023-11-30T16:33:03.192Z,98.70
2023-11-30T16:34:03.196Z,94.90
2023-11-30T16:35:03.133Z,96.90
2023-11-30T16:36:03.159Z,89.10
2023-11-30T16:37:03.131Z,95.20
2023-11-30T16:38:03.126Z,106.20
2023-11-30T16:39:03.102Z,98.90
2023-11-30T16:40:03.146Z,100.20
2023-11-30T16:41:03.064Z,110.60
2023-11-30T16:42:03.041Z,102.30
2023-11-30T16:43:03.038Z,104.70
2023-11-30T16:44:03.023Z,106.60
2023-11-30T16:45:03.079Z,101.40
2023-11-30T16:46:03.123Z,110.10
2023-11-30T16:47:03.011Z,95.70
2023-11-30T16:48:03.019Z,110.60
2023-11-30T16:49:02.969Z,107.50
2023-11-30T16:50:02.955Z,111.60
2023-11-30T16:51:02.929Z,123.50
2023-11-30T16:52:02.961Z,120.00
2023-11-30T16:53:02.926Z,121.70
2023-11-30T16:54:02.899Z,122.90
2023-11-30T16:55:03.124Z,114.10
2023-11-30T16:56:02.873Z,136.80
2023-11-30T16:57:02.875Z,117.00
2023-11-30T16:58:02.858Z,124.00
2023-11-30T16:59:02.834Z,116.80
2023-11-30T17:00:02.817Z,114.80
2023-11-30T17:01:02.797Z,110.20
2023-11-30T17:02:02.920Z,114.50
2023-11-30T17:03:02.838Z,113.30
2023-11-30T17:04:02.854Z,99.80
2023-11-30T17:05:02.761Z,104.80
2023-11-30T17:06:02.755Z,113.80
2023-11-30T17:07:02.795Z,102.10
2023-11-30T17:08:02.714Z,105.20
2023-11-30T17:09:02.712Z,110.70
2023-11-30T17:10:02.725Z,103.50
2023-11-30T17:11:02.689Z,106.00
2023-11-30T17:12:02.669Z,99.70
2023-11-30T17:13:02.712Z,97.70
2023-11-30T17:14:02.632Z,103.40
2023-11-30T17:15:02.628Z,106.40
2023-11-30T17:16:04.122Z,98.00
2023-11-30T17:17:05.351Z,92.50
2023-11-30T17:18:02.626Z,94.80
2023-11-30T17:19:02.578Z,95.70
2023-11-30T17:20:02.583Z,97.60
2023-11-30T17:21:02.549Z,96.30
2023-11-30T17:22:02.551Z,101.00
2023-11-30T17:23:02.522Z,111.30
2023-11-30T17:24:02.502Z,109.50
2023-11-30T17:25:02.605Z,97.50
2023-11-30T17:26:02.481Z,103.50
2023-11-30T17:27:02.468Z,95.30
2023-11-30T17:28:02.516Z,100.30
2023-11-30T17:29:02.440Z,91.20
2023-11-30T17:30:02.445Z,102.00
2023-11-30T17:31:02.438Z,92.20
2023-11-30T17:32:02.401Z,101.10
2023-11-30T17:33:02.610Z,100.60
2023-11-30T17:34:02.606Z,94.70
2023-11-30T17:35:02.591Z,95.90
2023-11-30T17:36:02.350Z,86.90
2023-11-30T17:37:02.328Z,91.80
2023-11-30T17:38:02.316Z,84.40
2023-11-30T17:39:02.320Z,85.40
2023-11-30T17:40:02.295Z,93.10
2023-11-30T17:41:02.348Z,90.90
2023-11-30T17:42:02.274Z,85.50
2023-11-30T17:43:02.260Z,82.00
2023-11-30T17:44:02.249Z,80.90
2023-11-30T17:45:02.263Z,83.30
2023-11-30T17:46:02.218Z,85.80
2023-11-30T17:47:02.204Z,79.30
2023-11-30T17:48:02.215Z,79.10
2023-11-30T17:49:02.191Z,86.70
2023-11-30T17:50:04.424Z,81.20
2023-11-30T17:51:02.150Z,88.50
2023-11-30T17:52:02.180Z,87.90
2023-11-30T17:53:02.135Z,83.80
2023-11-30T17:54:02.137Z,79.40
2023-11-30T17:55:02.144Z,86.30
2023-11-30T17:56:02.132Z,86.60
2023-11-30T17:57:02.081Z,85.70
2023-11-30T17:58:02.066Z,84.50
2023-11-30T17:59:02.058Z,77.40
2023-11-30T18:00:02.035Z,75.30
2023-11-30T18:01:02.055Z,76.20
2023-11-30T18:02:02.058Z,83.30